Талый Ручей

Карта отелей и гостиниц, располагающихся рядом с аэропортом Талый Ручей :

Талый Ручей Мурманская область 66° 53' 31.1388" N, 33° 52' 43.9212" E
Код аэродрома ИКАО
ULMH
Код аэродрома RU
УЛМХ
Координаты
N66.89198° E033.87887°
Превышение над уровнем моря
70
Основная полоса
13/31
Курс магнитный
130,7/310,7
Длина основной ВПП
3500
Ширина основной ВПП
60
Покрытие основной ВПП
Твёрдое (бетон)
Освещение ВПП
Нет
Тип: 
Аэродром
Класс аэродрома: 
Принадлежность: 
МО
Статус: 
Недействующий
Сайт: 
E-mail аэродрома: 
Страна: 
Россия
Регион: 
Мурманская область
Город: 
Дополнительная информация: 
Являлся оперативным и запасным аэродромом для противолодочных авиационных полков с Кипелово (Федотово). Принимал самолеты Ту-142 и другие типы. Аэродром и населённый пункт с 1993 года пустуют.

Найти трансфер

С помощью этой формы Вы можете найти трансфер из аэропорта Талый Ручей в город, аэропорт или вокзал:

Карта места

Javascript is required to view this map.

Погода в аэропортах:

Авиационная погода в Самсуне

Регион: 
Погода METAR: 
LTFH 241650Z 35016G26KT 8000 -SHRA SCT010 BKN028 BKN080 14/11 Q1024 NOSIG
Время наблюдения
2021-10-24T16:50:00Z
Температура C
14.0
Точка росы
11.0
Направление ветра
350
Скорость ветра (узлы)
16
Метео видимость
4.97
Явления погоды
-SHRA
Условия полета
MVFR

Авиационная погода в Воронеже

Регион: 
Погода METAR: 
UUOO 241700Z 33008MPS 9000 -SHRA BKN010 OVC///CB 03/01 Q1020 R30/290155 NOSIG RMK QFE752
Время наблюдения
2021-10-24T17:00:00Z
Температура C
3.0
Точка росы
1.0
Направление ветра
330
Скорость ветра (узлы)
16
Метео видимость
5.59
Явления погоды
-SHRA
Условия полета
MVFR
Аэропорт подробнее: 

Авиационная погода в Якутске

Регион: 
Погода METAR: 
UEEE 241700Z 22002MPS 9999 -SHSN SCT040CB 00/M01 Q1003 R23L/150156 NOSIG RMK QFE743
Время наблюдения
2021-10-24T17:00:00Z
Температура C
0.0
Точка росы
-1.0
Направление ветра
220
Скорость ветра (узлы)
4
Метео видимость
6.21
Явления погоды
-SHSN
Условия полета
VFR
Аэропорт подробнее: 

Авиационная погода в Чимкенте

Регион: 
Погода METAR: 
UAII 241800Z 13003MPS 3100 FU NSC 08/03 Q1016 R10/0///70 NOSIG RMK QFE727/0969
Время наблюдения
2021-10-24T18:00:00Z
Температура C
8.0
Точка росы
3.0
Направление ветра
130
Скорость ветра (узлы)
6
Метео видимость
1.93
Явления погоды
FU
Условия полета
IFR
Аэропорт подробнее: